横田飛行場の過去48時間の天気

横田飛行場 (Yokota)

現在時刻: 1/20 00:41 JST (1/19 15:41 UTC) 以下の時間は現地時間です。

過去48時間のMETAR気象情報
時間 風向 風速(m/s) 視程 気温(℃) 湿度(%) 気圧(hPa) 天気現象
19 23:56 西南西 2 10km以上 1.5 65 1019.8
19 22:56 静穏 0 10km以上 1.3 66 1020.6
19 21:56 静穏 0 10km以上 1.5 60 1020.6
19 20:56 西 2 10km以上 3.2 57 1021.3
19 19:56 西北西 2 10km以上 4.1 53 1021.5
19 18:56 北北東 3 10km以上 4 44 1021.9
19 17:56 静穏 0 10km以上 6.9 55 1021.1
19 16:56 3 10km以上 7.3 47 1020.7
19 15:56 南東 2 10km以上 9.9 32 1020.7
19 14:56 南東 3 10km以上 10.6 24 1020.6
19 13:56 静穏 0 10km以上 10.8 21 1020.6
19 12:56 南南東 2 10km以上 10.6 21 1021.2
19 11:56 4 10km以上 10 23 1021.9
19 10:56 東南東 2 10km以上 9.5 23 1023.3
19 09:56 3 10km以上 7.8 28 1023.6
19 08:56 静穏 0 10km以上 5.2 34 1023.8
19 07:56 西 3 10km以上 0.9 45 1023.8
19 06:56 北北西 2 10km以上 -2.3 55 1023.6
19 05:56 西北西 3 10km以上 -1.2 52 1022.9
19 04:56 西北西 3 10km以上 -1 54 1022.5
RJTY 191456Z AUTO 25003KT 10SM FEW039 02/M04 A3009 RMK AO2 SLP198 T00151044 401121027 57014 FZRANO $
RJTY 191356Z AUTO 00000KT 10SM CLR 01/M04 A3011 RMK AO2 SLP206 T00131044 FZRANO $
RJTY 191256Z AUTO 00000KT 10SM CLR 02/M05 A3011 RMK AO2 SLP206 T00151054 FZRANO $
RJTY 191156Z AUTO 28004KT 10SM CLR 03/M04 A3013 RMK AO2 SLP213 T00321045 10107 20027 50003 FZRANO $
RJTY 191056Z AUTO 29004KT 10SM CLR 04/M05 A3013 RMK AO2 SLP215 T00411046 FZRANO $
RJTY 190956Z AUTO 02006KT 10SM CLR 04/M07 A3014 RMK AO2 SLP219 T00401072 FZRANO $
RJTY 190856Z AUTO 00000KT 10SM CLR 07/M01 A3012 RMK AO2 SLP211 T00691015 53003 FZRANO $
RJTY 190756Z AUTO 19006KT 10SM CLR 07/M03 A3011 RMK AO2 SLP207 T00731033 FZRANO $
RJTY 190656Z AUTO 14003KT 10SM CLR 10/M06 A3011 RMK AO2 SLP207 T00991060 FZRANO $
RJTY 190556Z AUTO 14005KT 10SM CLR 11/M09 A3011 RMK AO2 SLP206 T01061092 10112 20053 55012 FZRANO $
RJTY 190456Z AUTO 00000KT 10SM CLR 11/M11 A3011 RMK AO2 SLP206 T01081107 FZRANO $
RJTY 190356Z AUTO 16003KT 10SM CLR 11/M11 A3013 RMK AO2 SLP212 T01061108 FZRANO $
RJTY 190256Z AUTO 18007KT 10SM CLR 10/M10 A3015 RMK AO2 SLP219 T01001102 58018 FZRANO $
RJTY 190156Z AUTO 12004KT 10SM CLR 10/M11 A3019 RMK AO2 SLP233 T00951106 FZRANO $
RJTY 190056Z AUTO 36006KT 10SM CLR 08/M10 A3020 RMK AO2 SLP236 T00781096 FZRANO $
RJTY 182356Z AUTO 00000KT 10SM CLR 05/M09 A3020 RMK AO2 SLP238 T00521094 10052 21027 52009 FZRANO $
RJTY 182256Z AUTO 28005KT 10SM CLR 01/M10 A3020 RMK AO2 SLP238 T00091097 FZRANO $
RJTY 182156Z AUTO 33004KT 10SM CLR M02/M10 A3019 RMK AO2 SLP236 T10231101 FZRANO $
RJTY 182056Z AUTO 30006KT 10SM CLR M01/M10 A3017 RMK AO2 SLP229 T10121098 53007 FZRANO $
RJTY 181956Z AUTO 29005KT 10SM CLR M01/M09 A3016 RMK AO2 SLP225 T10101091 FZRANO $